sensor_id;sensor_type;location;lat;lon;timestamp;P1;durP1;ratioP1;P2;durP2;ratioP2
73168;SDS011;61379;59.732;30.468;2024-02-21T00:01:14;6.38;;;5.97;;
73168;SDS011;61379;59.732;30.468;2024-02-21T00:03:41;7.03;;;6.53;;
73168;SDS011;61379;59.732;30.468;2024-02-21T00:06:09;6.70;;;6.20;;
73168;SDS011;61379;59.732;30.468;2024-02-21T00:08:36;6.65;;;6.00;;
73168;SDS011;61379;59.732;30.468;2024-02-21T00:11:03;7.32;;;6.82;;
73168;SDS011;61379;59.732;30.468;2024-02-21T00:13:30;6.38;;;5.97;;
73168;SDS011;61379;59.732;30.468;2024-02-21T00:15:57;6.57;;;6.18;;
73168;SDS011;61379;59.732;30.468;2024-02-21T00:18:23;7.43;;;6.18;;
73168;SDS011;61379;59.732;30.468;2024-02-21T00:20:50;6.55;;;6.15;;
73168;SDS011;61379;59.732;30.468;2024-02-21T00:23:19;6.65;;;6.15;;
73168;SDS011;61379;59.732;30.468;2024-02-21T00:25:46;6.88;;;6.38;;
73168;SDS011;61379;59.732;30.468;2024-02-21T00:28:13;7.32;;;6.72;;
73168;SDS011;61379;59.732;30.468;2024-02-21T00:30:39;7.18;;;6.35;;
73168;SDS011;61379;59.732;30.468;2024-02-21T00:33:07;7.55;;;7.05;;
73168;SDS011;61379;59.732;30.468;2024-02-21T00:35:33;6.60;;;6.20;;
73168;SDS011;61379;59.732;30.468;2024-02-21T00:38:00;7.05;;;6.60;;
73168;SDS011;61379;59.732;30.468;2024-02-21T00:40:30;7.63;;;7.05;;
73168;SDS011;61379;59.732;30.468;2024-02-21T00:42:56;8.38;;;7.32;;
73168;SDS011;61379;59.732;30.468;2024-02-21T00:45:22;8.15;;;7.45;;
73168;SDS011;61379;59.732;30.468;2024-02-21T00:47:49;7.75;;;7.07;;
73168;SDS011;61379;59.732;30.468;2024-02-21T00:50:16;7.20;;;6.50;;
73168;SDS011;61379;59.732;30.468;2024-02-21T00:52:43;7.43;;;6.82;;
73168;SDS011;61379;59.732;30.468;2024-02-21T00:55:10;6.93;;;6.53;;
73168;SDS011;61379;59.732;30.468;2024-02-21T00:57:39;7.32;;;6.72;;
73168;SDS011;61379;59.732;30.468;2024-02-21T01:00:06;6.95;;;6.35;;
73168;SDS011;61379;59.732;30.468;2024-02-21T01:02:33;8.20;;;7.50;;
73168;SDS011;61379;59.732;30.468;2024-02-21T01:05:00;7.15;;;6.55;;
73168;SDS011;61379;59.732;30.468;2024-02-21T01:07:29;10.18;;;7.47;;
73168;SDS011;61379;59.732;30.468;2024-02-21T01:09:56;7.00;;;6.47;;
73168;SDS011;61379;59.732;30.468;2024-02-21T01:12:22;7.65;;;7.05;;
73168;SDS011;61379;59.732;30.468;2024-02-21T01:14:51;7.40;;;6.80;;
73168;SDS011;61379;59.732;30.468;2024-02-21T01:17:17;8.10;;;7.25;;
73168;SDS011;61379;59.732;30.468;2024-02-21T01:19:45;7.32;;;6.82;;
73168;SDS011;61379;59.732;30.468;2024-02-21T01:22:12;6.20;;;5.78;;
73168;SDS011;61379;59.732;30.468;2024-02-21T01:24:40;9.07;;;7.57;;
73168;SDS011;61379;59.732;30.468;2024-02-21T01:27:07;8.70;;;7.80;;
73168;SDS011;61379;59.732;30.468;2024-02-21T01:29:33;8.35;;;7.70;;
73168;SDS011;61379;59.732;30.468;2024-02-21T01:32:02;9.93;;;7.57;;
73168;SDS011;61379;59.732;30.468;2024-02-21T01:34:29;8.18;;;6.57;;
73168;SDS011;61379;59.732;30.468;2024-02-21T01:36:56;8.20;;;7.40;;
73168;SDS011;61379;59.732;30.468;2024-02-21T01:39:22;6.93;;;6.38;;
73168;SDS011;61379;59.732;30.468;2024-02-21T01:41:49;8.77;;;6.63;;
73168;SDS011;61379;59.732;30.468;2024-02-21T01:44:16;8.05;;;6.97;;
73168;SDS011;61379;59.732;30.468;2024-02-21T01:46:43;6.78;;;6.13;;
73168;SDS011;61379;59.732;30.468;2024-02-21T01:49:11;7.50;;;6.90;;
73168;SDS011;61379;59.732;30.468;2024-02-21T01:51:38;7.20;;;6.57;;
73168;SDS011;61379;59.732;30.468;2024-02-21T01:54:05;7.00;;;6.40;;
73168;SDS011;61379;59.732;30.468;2024-02-21T01:56:32;6.70;;;6.20;;
73168;SDS011;61379;59.732;30.468;2024-02-21T01:58:59;6.85;;;6.25;;
73168;SDS011;61379;59.732;30.468;2024-02-21T02:01:26;6.13;;;5.72;;
73168;SDS011;61379;59.732;30.468;2024-02-21T02:03:54;7.32;;;6.00;;
73168;SDS011;61379;59.732;30.468;2024-02-21T02:06:23;5.40;;;5.00;;
73168;SDS011;61379;59.732;30.468;2024-02-21T02:08:49;6.78;;;6.25;;
73168;SDS011;61379;59.732;30.468;2024-02-21T02:11:16;6.20;;;5.75;;
73168;SDS011;61379;59.732;30.468;2024-02-21T02:13:45;6.40;;;5.90;;
73168;SDS011;61379;59.732;30.468;2024-02-21T02:16:12;6.55;;;6.05;;
73168;SDS011;61379;59.732;30.468;2024-02-21T02:18:39;5.95;;;5.55;;
73168;SDS011;61379;59.732;30.468;2024-02-21T02:21:22;6.20;;;5.78;;
73168;SDS011;61379;59.732;30.468;2024-02-21T02:23:51;7.05;;;6.55;;
73168;SDS011;61379;59.732;30.468;2024-02-21T02:26:18;6.82;;;6.20;;
73168;SDS011;61379;59.732;30.468;2024-02-21T02:28:45;6.63;;;6.18;;
73168;SDS011;61379;59.732;30.468;2024-02-21T02:31:12;6.60;;;6.10;;
73168;SDS011;61379;59.732;30.468;2024-02-21T02:33:39;6.40;;;5.85;;
73168;SDS011;61379;59.732;30.468;2024-02-21T02:36:06;6.72;;;6.13;;
73168;SDS011;61379;59.732;30.468;2024-02-21T02:38:33;7.85;;;7.07;;
73168;SDS011;61379;59.732;30.468;2024-02-21T02:41:01;5.28;;;4.85;;
73168;SDS011;61379;59.732;30.468;2024-02-21T02:43:28;6.60;;;6.10;;
73168;SDS011;61379;59.732;30.468;2024-02-21T02:45:55;8.82;;;8.02;;
73168;SDS011;61379;59.732;30.468;2024-02-21T02:48:22;7.30;;;6.70;;
73168;SDS011;61379;59.732;30.468;2024-02-21T02:50:49;7.45;;;6.95;;
73168;SDS011;61379;59.732;30.468;2024-02-21T02:53:15;9.40;;;8.60;;
73168;SDS011;61379;59.732;30.468;2024-02-21T02:55:42;8.52;;;7.70;;
73168;SDS011;61379;59.732;30.468;2024-02-21T02:58:10;8.90;;;8.00;;
73168;SDS011;61379;59.732;30.468;2024-02-21T03:00:37;7.38;;;6.68;;
73168;SDS011;61379;59.732;30.468;2024-02-21T03:03:05;6.70;;;6.30;;
73168;SDS011;61379;59.732;30.468;2024-02-21T03:05:33;7.28;;;6.80;;
73168;SDS011;61379;59.732;30.468;2024-02-21T03:08:00;7.40;;;6.90;;
73168;SDS011;61379;59.732;30.468;2024-02-21T03:10:27;7.30;;;6.80;;
73168;SDS011;61379;59.732;30.468;2024-02-21T03:12:54;6.50;;;6.10;;
73168;SDS011;61379;59.732;30.468;2024-02-21T03:15:22;6.72;;;6.13;;
73168;SDS011;61379;59.732;30.468;2024-02-21T03:17:49;6.40;;;6.00;;
73168;SDS011;61379;59.732;30.468;2024-02-21T03:20:16;7.28;;;6.68;;
73168;SDS011;61379;59.732;30.468;2024-02-21T03:22:45;6.13;;;5.75;;
73168;SDS011;61379;59.732;30.468;2024-02-21T03:25:12;6.40;;;6.00;;
73168;SDS011;61379;59.732;30.468;2024-02-21T03:27:40;6.28;;;5.88;;
73168;SDS011;61379;59.732;30.468;2024-02-21T03:30:07;6.63;;;6.22;;
73168;SDS011;61379;59.732;30.468;2024-02-21T03:32:36;6.55;;;6.05;;
73168;SDS011;61379;59.732;30.468;2024-02-21T03:35:04;6.07;;;5.68;;
73168;SDS011;61379;59.732;30.468;2024-02-21T03:37:31;8.40;;;6.40;;
73168;SDS011;61379;59.732;30.468;2024-02-21T03:39:58;6.18;;;5.78;;
73168;SDS011;61379;59.732;30.468;2024-02-21T03:42:25;7.10;;;6.60;;
73168;SDS011;61379;59.732;30.468;2024-02-21T03:44:54;6.10;;;5.70;;
73168;SDS011;61379;59.732;30.468;2024-02-21T03:47:21;6.63;;;6.22;;
73168;SDS011;61379;59.732;30.468;2024-02-21T03:49:50;6.70;;;6.20;;
73168;SDS011;61379;59.732;30.468;2024-02-21T03:52:16;6.03;;;5.63;;
73168;SDS011;61379;59.732;30.468;2024-02-21T03:54:43;6.70;;;6.22;;
73168;SDS011;61379;59.732;30.468;2024-02-21T03:57:10;6.20;;;5.80;;
73168;SDS011;61379;59.732;30.468;2024-02-21T03:59:37;6.68;;;6.28;;
73168;SDS011;61379;59.732;30.468;2024-02-21T04:02:05;7.55;;;6.88;;
73168;SDS011;61379;59.732;30.468;2024-02-21T04:04:33;8.80;;;7.55;;
73168;SDS011;61379;59.732;30.468;2024-02-21T04:07:02;6.13;;;5.72;;
73168;SDS011;61379;59.732;30.468;2024-02-21T04:09:31;8.73;;;7.88;;
73168;SDS011;61379;59.732;30.468;2024-02-21T04:11:59;8.13;;;7.60;;
73168;SDS011;61379;59.732;30.468;2024-02-21T04:14:26;7.93;;;7.22;;
73168;SDS011;61379;59.732;30.468;2024-02-21T04:16:53;5.45;;;5.05;;
73168;SDS011;61379;59.732;30.468;2024-02-21T04:19:20;6.95;;;6.40;;
73168;SDS011;61379;59.732;30.468;2024-02-21T04:21:46;7.20;;;6.50;;
73168;SDS011;61379;59.732;30.468;2024-02-21T04:24:15;6.28;;;5.88;;
73168;SDS011;61379;59.732;30.468;2024-02-21T04:26:42;7.22;;;6.63;;
73168;SDS011;61379;59.732;30.468;2024-02-21T04:29:09;7.43;;;6.88;;
73168;SDS011;61379;59.732;30.468;2024-02-21T04:31:35;7.88;;;7.18;;
73168;SDS011;61379;59.732;30.468;2024-02-21T04:34:02;8.02;;;7.43;;
73168;SDS011;61379;59.732;30.468;2024-02-21T04:36:29;7.60;;;6.93;;
73168;SDS011;61379;59.732;30.468;2024-02-21T04:38:56;7.05;;;6.55;;
73168;SDS011;61379;59.732;30.468;2024-02-21T04:41:24;7.43;;;6.85;;
73168;SDS011;61379;59.732;30.468;2024-02-21T04:43:51;6.93;;;6.38;;
73168;SDS011;61379;59.732;30.468;2024-02-21T04:46:18;6.97;;;6.47;;
73168;SDS011;61379;59.732;30.468;2024-02-21T04:48:45;8.45;;;7.75;;
73168;SDS011;61379;59.732;30.468;2024-02-21T04:51:12;8.20;;;7.55;;
73168;SDS011;61379;59.732;30.468;2024-02-21T04:53:39;7.78;;;7.15;;
73168;SDS011;61379;59.732;30.468;2024-02-21T04:56:06;7.15;;;6.55;;
73168;SDS011;61379;59.732;30.468;2024-02-21T04:58:37;7.35;;;6.85;;
73168;SDS011;61379;59.732;30.468;2024-02-21T05:01:03;7.93;;;7.35;;
73168;SDS011;61379;59.732;30.468;2024-02-21T05:03:31;7.68;;;7.10;;
73168;SDS011;61379;59.732;30.468;2024-02-21T05:05:58;6.82;;;6.32;;
73168;SDS011;61379;59.732;30.468;2024-02-21T05:08:25;7.05;;;6.55;;
73168;SDS011;61379;59.732;30.468;2024-02-21T05:10:52;6.63;;;6.22;;
73168;SDS011;61379;59.732;30.468;2024-02-21T05:13:19;7.55;;;7.05;;
73168;SDS011;61379;59.732;30.468;2024-02-21T05:15:47;7.65;;;6.95;;
73168;SDS011;61379;59.732;30.468;2024-02-21T05:18:14;6.20;;;5.75;;
73168;SDS011;61379;59.732;30.468;2024-02-21T05:20:41;8.55;;;7.68;;
73168;SDS011;61379;59.732;30.468;2024-02-21T05:23:08;6.30;;;5.68;;
73168;SDS011;61379;59.732;30.468;2024-02-21T05:25:35;7.40;;;6.78;;
73168;SDS011;61379;59.732;30.468;2024-02-21T05:28:02;7.72;;;7.13;;
73168;SDS011;61379;59.732;30.468;2024-02-21T05:30:28;7.22;;;6.63;;
73168;SDS011;61379;59.732;30.468;2024-02-21T05:32:57;7.75;;;6.47;;
73168;SDS011;61379;59.732;30.468;2024-02-21T05:35:27;6.93;;;6.32;;
73168;SDS011;61379;59.732;30.468;2024-02-21T05:37:54;7.93;;;7.20;;
73168;SDS011;61379;59.732;30.468;2024-02-21T05:40:20;6.93;;;6.43;;
73168;SDS011;61379;59.732;30.468;2024-02-21T05:42:47;7.57;;;6.75;;
73168;SDS011;61379;59.732;30.468;2024-02-21T05:45:16;7.03;;;6.53;;
73168;SDS011;61379;59.732;30.468;2024-02-21T05:47:43;7.80;;;7.20;;
73168;SDS011;61379;59.732;30.468;2024-02-21T05:50:11;7.32;;;6.75;;
73168;SDS011;61379;59.732;30.468;2024-02-21T05:52:38;7.50;;;6.95;;
73168;SDS011;61379;59.732;30.468;2024-02-21T05:55:06;6.50;;;6.05;;
73168;SDS011;61379;59.732;30.468;2024-02-21T05:57:34;7.88;;;7.28;;
73168;SDS011;61379;59.732;30.468;2024-02-21T06:00:02;5.72;;;5.22;;
73168;SDS011;61379;59.732;30.468;2024-02-21T06:02:30;6.25;;;5.72;;
73168;SDS011;61379;59.732;30.468;2024-02-21T06:04:56;8.75;;;5.82;;
73168;SDS011;61379;59.732;30.468;2024-02-21T06:07:24;5.82;;;5.32;;
73168;SDS011;61379;59.732;30.468;2024-02-21T06:09:51;7.78;;;7.07;;
73168;SDS011;61379;59.732;30.468;2024-02-21T06:12:18;6.22;;;5.82;;
73168;SDS011;61379;59.732;30.468;2024-02-21T06:14:45;7.03;;;6.32;;
73168;SDS011;61379;59.732;30.468;2024-02-21T06:17:11;8.85;;;7.25;;
73168;SDS011;61379;59.732;30.468;2024-02-21T06:19:39;7.40;;;6.80;;
73168;SDS011;61379;59.732;30.468;2024-02-21T06:22:06;5.72;;;5.18;;
73168;SDS011;61379;59.732;30.468;2024-02-21T06:24:34;6.85;;;6.35;;
73168;SDS011;61379;59.732;30.468;2024-02-21T06:27:00;9.18;;;6.70;;
73168;SDS011;61379;59.732;30.468;2024-02-21T06:29:27;7.30;;;6.68;;
73168;SDS011;61379;59.732;30.468;2024-02-21T06:31:54;8.82;;;7.65;;
73168;SDS011;61379;59.732;30.468;2024-02-21T06:34:20;9.57;;;7.63;;
73168;SDS011;61379;59.732;30.468;2024-02-21T06:36:47;8.63;;;7.20;;
73168;SDS011;61379;59.732;30.468;2024-02-21T06:39:14;10.20;;;9.07;;
73168;SDS011;61379;59.732;30.468;2024-02-21T06:41:42;8.18;;;7.47;;
73168;SDS011;61379;59.732;30.468;2024-02-21T06:44:09;13.80;;;8.45;;
73168;SDS011;61379;59.732;30.468;2024-02-21T06:46:36;9.07;;;8.15;;
73168;SDS011;61379;59.732;30.468;2024-02-21T06:49:03;11.52;;;8.15;;
73168;SDS011;61379;59.732;30.468;2024-02-21T06:51:30;9.07;;;6.63;;
73168;SDS011;61379;59.732;30.468;2024-02-21T06:53:57;7.50;;;6.90;;
73168;SDS011;61379;59.732;30.468;2024-02-21T06:56:24;7.40;;;6.18;;
73168;SDS011;61379;59.732;30.468;2024-02-21T06:58:55;8.60;;;7.80;;
73168;SDS011;61379;59.732;30.468;2024-02-21T07:01:22;8.32;;;7.57;;
73168;SDS011;61379;59.732;30.468;2024-02-21T07:03:49;8.32;;;7.53;;
73168;SDS011;61379;59.732;30.468;2024-02-21T07:06:16;9.82;;;7.55;;
73168;SDS011;61379;59.732;30.468;2024-02-21T07:08:43;10.85;;;8.18;;
73168;SDS011;61379;59.732;30.468;2024-02-21T07:11:10;9.18;;;7.05;;
73168;SDS011;61379;59.732;30.468;2024-02-21T07:13:37;11.35;;;8.48;;
73168;SDS011;61379;59.732;30.468;2024-02-21T07:16:06;10.02;;;8.40;;
73168;SDS011;61379;59.732;30.468;2024-02-21T07:18:33;9.98;;;8.88;;
73168;SDS011;61379;59.732;30.468;2024-02-21T07:21:00;13.65;;;9.50;;
73168;SDS011;61379;59.732;30.468;2024-02-21T07:23:26;10.60;;;8.45;;
73168;SDS011;61379;59.732;30.468;2024-02-21T07:25:53;9.43;;;7.82;;
73168;SDS011;61379;59.732;30.468;2024-02-21T07:28:20;7.88;;;7.18;;
73168;SDS011;61379;59.732;30.468;2024-02-21T07:30:47;8.73;;;7.72;;
73168;SDS011;61379;59.732;30.468;2024-02-21T07:33:15;9.50;;;7.07;;
73168;SDS011;61379;59.732;30.468;2024-02-21T07:35:42;7.93;;;7.22;;
73168;SDS011;61379;59.732;30.468;2024-02-21T07:38:10;6.90;;;6.25;;
73168;SDS011;61379;59.732;30.468;2024-02-21T07:40:38;6.70;;;6.15;;
73168;SDS011;61379;59.732;30.468;2024-02-21T07:43:05;7.38;;;6.72;;
73168;SDS011;61379;59.732;30.468;2024-02-21T07:45:31;6.22;;;5.82;;
73168;SDS011;61379;59.732;30.468;2024-02-21T07:47:58;7.20;;;6.60;;
73168;SDS011;61379;59.732;30.468;2024-02-21T07:50:26;7.03;;;6.43;;
73168;SDS011;61379;59.732;30.468;2024-02-21T07:52:53;6.47;;;6.07;;
73168;SDS011;61379;59.732;30.468;2024-02-21T07:55:20;7.13;;;6.70;;
73168;SDS011;61379;59.732;30.468;2024-02-21T07:57:47;10.00;;;6.97;;
73168;SDS011;61379;59.732;30.468;2024-02-21T08:00:15;7.30;;;6.68;;
73168;SDS011;61379;59.732;30.468;2024-02-21T08:02:45;7.38;;;6.88;;
73168;SDS011;61379;59.732;30.468;2024-02-21T08:05:12;8.40;;;7.70;;
73168;SDS011;61379;59.732;30.468;2024-02-21T08:07:40;7.50;;;6.95;;
73168;SDS011;61379;59.732;30.468;2024-02-21T08:10:07;8.10;;;7.15;;
73168;SDS011;61379;59.732;30.468;2024-02-21T08:12:34;8.27;;;7.57;;
73168;SDS011;61379;59.732;30.468;2024-02-21T08:15:02;8.15;;;7.45;;
73168;SDS011;61379;59.732;30.468;2024-02-21T08:17:31;7.68;;;7.07;;
73168;SDS011;61379;59.732;30.468;2024-02-21T08:19:58;8.10;;;7.30;;
73168;SDS011;61379;59.732;30.468;2024-02-21T08:22:25;8.02;;;7.43;;
73168;SDS011;61379;59.732;30.468;2024-02-21T08:24:53;7.93;;;7.32;;
73168;SDS011;61379;59.732;30.468;2024-02-21T08:27:20;8.27;;;7.57;;
73168;SDS011;61379;59.732;30.468;2024-02-21T08:29:46;7.28;;;6.65;;
73168;SDS011;61379;59.732;30.468;2024-02-21T08:32:13;8.27;;;7.57;;
73168;SDS011;61379;59.732;30.468;2024-02-21T08:34:40;7.85;;;7.05;;
73168;SDS011;61379;59.732;30.468;2024-02-21T08:37:07;8.13;;;7.53;;
73168;SDS011;61379;59.732;30.468;2024-02-21T08:39:36;8.98;;;8.02;;
73168;SDS011;61379;59.732;30.468;2024-02-21T08:42:04;8.73;;;7.95;;
73168;SDS011;61379;59.732;30.468;2024-02-21T08:44:31;6.90;;;6.38;;
73168;SDS011;61379;59.732;30.468;2024-02-21T08:46:58;7.93;;;7.32;;
73168;SDS011;61379;59.732;30.468;2024-02-21T08:49:25;7.75;;;7.13;;
73168;SDS011;61379;59.732;30.468;2024-02-21T08:51:53;7.05;;;6.45;;
73168;SDS011;61379;59.732;30.468;2024-02-21T08:54:20;7.93;;;7.22;;
73168;SDS011;61379;59.732;30.468;2024-02-21T08:56:47;7.32;;;6.72;;
73168;SDS011;61379;59.732;30.468;2024-02-21T08:59:15;8.57;;;7.78;;
73168;SDS011;61379;59.732;30.468;2024-02-21T09:01:43;8.00;;;7.40;;
73168;SDS011;61379;59.732;30.468;2024-02-21T09:04:10;8.30;;;7.60;;
73168;SDS011;61379;59.732;30.468;2024-02-21T09:06:37;7.75;;;6.95;;
73168;SDS011;61379;59.732;30.468;2024-02-21T09:09:07;7.70;;;7.10;;
73168;SDS011;61379;59.732;30.468;2024-02-21T09:11:34;8.95;;;8.15;;
73168;SDS011;61379;59.732;30.468;2024-02-21T09:14:00;7.32;;;6.80;;
73168;SDS011;61379;59.732;30.468;2024-02-21T09:16:30;8.02;;;7.43;;
73168;SDS011;61379;59.732;30.468;2024-02-21T09:18:57;7.18;;;6.68;;
73168;SDS011;61379;59.732;30.468;2024-02-21T09:21:24;7.85;;;7.32;;
73168;SDS011;61379;59.732;30.468;2024-02-21T09:23:51;9.52;;;7.65;;
73168;SDS011;61379;59.732;30.468;2024-02-21T09:26:18;8.40;;;6.35;;
73168;SDS011;61379;59.732;30.468;2024-02-21T09:28:44;9.10;;;7.72;;
73168;SDS011;61379;59.732;30.468;2024-02-21T09:31:11;7.70;;;6.95;;
73168;SDS011;61379;59.732;30.468;2024-02-21T09:33:40;8.65;;;7.75;;
73168;SDS011;61379;59.732;30.468;2024-02-21T09:36:07;8.52;;;7.60;;
73168;SDS011;61379;59.732;30.468;2024-02-21T09:38:33;9.55;;;8.75;;
73168;SDS011;61379;59.732;30.468;2024-02-21T09:41:03;8.95;;;8.25;;
73168;SDS011;61379;59.732;30.468;2024-02-21T09:43:31;8.85;;;7.82;;
73168;SDS011;61379;59.732;30.468;2024-02-21T09:45:58;9.77;;;8.98;;
73168;SDS011;61379;59.732;30.468;2024-02-21T09:48:27;8.48;;;7.70;;
73168;SDS011;61379;59.732;30.468;2024-02-21T09:50:59;9.02;;;8.23;;
73168;SDS011;61379;59.732;30.468;2024-02-21T09:53:26;10.65;;;8.27;;
73168;SDS011;61379;59.732;30.468;2024-02-21T09:55:53;10.23;;;9.18;;
73168;SDS011;61379;59.732;30.468;2024-02-21T09:58:20;11.15;;;9.40;;
73168;SDS011;61379;59.732;30.468;2024-02-21T10:00:48;9.35;;;8.48;;
73168;SDS011;61379;59.732;30.468;2024-02-21T10:03:14;7.95;;;7.20;;
73168;SDS011;61379;59.732;30.468;2024-02-21T10:05:46;8.18;;;7.47;;
73168;SDS011;61379;59.732;30.468;2024-02-21T10:08:15;9.48;;;7.72;;
73168;SDS011;61379;59.732;30.468;2024-02-21T10:10:42;10.43;;;7.30;;
73168;SDS011;61379;59.732;30.468;2024-02-21T10:13:09;9.13;;;8.25;;
73168;SDS011;61379;59.732;30.468;2024-02-21T10:15:37;9.77;;;8.77;;
73168;SDS011;61379;59.732;30.468;2024-02-21T10:18:04;10.95;;;7.55;;
73168;SDS011;61379;59.732;30.468;2024-02-21T10:20:32;9.55;;;8.63;;
73168;SDS011;61379;59.732;30.468;2024-02-21T10:23:01;10.75;;;9.05;;
73168;SDS011;61379;59.732;30.468;2024-02-21T10:25:34;15.93;;;10.05;;
73168;SDS011;61379;59.732;30.468;2024-02-21T10:30:28;13.13;;;9.73;;
73168;SDS011;61379;59.732;30.468;2024-02-21T10:32:55;8.85;;;8.00;;
73168;SDS011;61379;59.732;30.468;2024-02-21T10:35:26;9.82;;;8.85;;
73168;SDS011;61379;59.732;30.468;2024-02-21T10:37:54;10.40;;;8.10;;
73168;SDS011;61379;59.732;30.468;2024-02-21T10:40:22;15.20;;;9.45;;
73168;SDS011;61379;59.732;30.468;2024-02-21T10:42:50;10.35;;;8.77;;
73168;SDS011;61379;59.732;30.468;2024-02-21T10:45:21;17.63;;;10.60;;
73168;SDS011;61379;59.732;30.468;2024-02-21T10:47:49;13.25;;;9.00;;
73168;SDS011;61379;59.732;30.468;2024-02-21T10:50:17;11.98;;;7.88;;
73168;SDS011;61379;59.732;30.468;2024-02-21T10:52:47;10.55;;;8.68;;
73168;SDS011;61379;59.732;30.468;2024-02-21T10:55:16;7.40;;;6.72;;
73168;SDS011;61379;59.732;30.468;2024-02-21T10:57:46;12.38;;;9.48;;
73168;SDS011;61379;59.732;30.468;2024-02-21T11:00:15;14.23;;;9.52;;
73168;SDS011;61379;59.732;30.468;2024-02-21T11:02:44;13.40;;;9.18;;
73168;SDS011;61379;59.732;30.468;2024-02-21T11:05:11;13.40;;;8.98;;
73168;SDS011;61379;59.732;30.468;2024-02-21T11:07:38;10.88;;;8.68;;
73168;SDS011;61379;59.732;30.468;2024-02-21T11:10:19;12.00;;;10.65;;
73168;SDS011;61379;59.732;30.468;2024-02-21T11:12:46;20.75;;;11.30;;
73168;SDS011;61379;59.732;30.468;2024-02-21T11:15:13;9.70;;;8.80;;
73168;SDS011;61379;59.732;30.468;2024-02-21T11:17:42;12.32;;;10.38;;
73168;SDS011;61379;59.732;30.468;2024-02-21T11:20:20;11.82;;;9.52;;
73168;SDS011;61379;59.732;30.468;2024-02-21T11:22:47;11.82;;;8.00;;
73168;SDS011;61379;59.732;30.468;2024-02-21T11:25:21;11.77;;;9.80;;
73168;SDS011;61379;59.732;30.468;2024-02-21T11:27:47;16.48;;;12.40;;
73168;SDS011;61379;59.732;30.468;2024-02-21T11:30:14;11.73;;;9.77;;
73168;SDS011;61379;59.732;30.468;2024-02-21T11:32:44;13.88;;;11.35;;
73168;SDS011;61379;59.732;30.468;2024-02-21T11:35:18;11.07;;;9.98;;
73168;SDS011;61379;59.732;30.468;2024-02-21T11:37:45;21.55;;;12.93;;
73168;SDS011;61379;59.732;30.468;2024-02-21T11:40:14;16.45;;;12.63;;
73168;SDS011;61379;59.732;30.468;2024-02-21T11:42:41;14.63;;;10.93;;
73168;SDS011;61379;59.732;30.468;2024-02-21T11:45:09;10.38;;;8.48;;
73168;SDS011;61379;59.732;30.468;2024-02-21T11:47:36;15.18;;;10.77;;
73168;SDS011;61379;59.732;30.468;2024-02-21T11:50:09;13.88;;;10.45;;
73168;SDS011;61379;59.732;30.468;2024-02-21T11:52:36;10.57;;;9.50;;
73168;SDS011;61379;59.732;30.468;2024-02-21T11:55:03;17.67;;;11.30;;
73168;SDS011;61379;59.732;30.468;2024-02-21T11:57:30;16.58;;;11.35;;
73168;SDS011;61379;59.732;30.468;2024-02-21T11:59:57;16.00;;;11.32;;
73168;SDS011;61379;59.732;30.468;2024-02-21T12:02:24;17.00;;;9.95;;
73168;SDS011;61379;59.732;30.468;2024-02-21T12:04:52;12.93;;;10.40;;
73168;SDS011;61379;59.732;30.468;2024-02-21T12:07:21;10.02;;;8.25;;
73168;SDS011;61379;59.732;30.468;2024-02-21T12:09:48;14.05;;;9.25;;
73168;SDS011;61379;59.732;30.468;2024-02-21T12:12:19;13.88;;;10.20;;
73168;SDS011;61379;59.732;30.468;2024-02-21T12:14:46;16.95;;;11.90;;
73168;SDS011;61379;59.732;30.468;2024-02-21T12:17:13;10.45;;;9.55;;
73168;SDS011;61379;59.732;30.468;2024-02-21T12:19:40;15.95;;;9.90;;
73168;SDS011;61379;59.732;30.468;2024-02-21T12:22:06;16.35;;;10.93;;
73168;SDS011;61379;59.732;30.468;2024-02-21T12:24:35;20.67;;;10.40;;
73168;SDS011;61379;59.732;30.468;2024-02-21T12:27:03;10.88;;;9.73;;
73168;SDS011;61379;59.732;30.468;2024-02-21T12:29:30;20.75;;;11.52;;
73168;SDS011;61379;59.732;30.468;2024-02-21T12:31:57;15.40;;;10.85;;
73168;SDS011;61379;59.732;30.468;2024-02-21T12:34:24;12.25;;;10.40;;
73168;SDS011;61379;59.732;30.468;2024-02-21T12:36:52;21.55;;;11.48;;
73168;SDS011;61379;59.732;30.468;2024-02-21T12:39:19;18.85;;;13.48;;
73168;SDS011;61379;59.732;30.468;2024-02-21T12:41:47;14.55;;;11.02;;
73168;SDS011;61379;59.732;30.468;2024-02-21T12:44:14;13.48;;;10.70;;
73168;SDS011;61379;59.732;30.468;2024-02-21T12:46:43;22.02;;;12.07;;
73168;SDS011;61379;59.732;30.468;2024-02-21T12:49:10;13.90;;;11.32;;
73168;SDS011;61379;59.732;30.468;2024-02-21T12:51:37;13.32;;;11.15;;
73168;SDS011;61379;59.732;30.468;2024-02-21T12:54:04;8.57;;;7.78;;
73168;SDS011;61379;59.732;30.468;2024-02-21T12:56:31;14.45;;;9.85;;
73168;SDS011;61379;59.732;30.468;2024-02-21T12:59:00;16.48;;;10.30;;
73168;SDS011;61379;59.732;30.468;2024-02-21T13:01:26;15.68;;;10.88;;
73168;SDS011;61379;59.732;30.468;2024-02-21T13:03:53;17.52;;;12.18;;
73168;SDS011;61379;59.732;30.468;2024-02-21T13:06:21;16.42;;;12.63;;
73168;SDS011;61379;59.732;30.468;2024-02-21T13:08:48;16.30;;;11.55;;
73168;SDS011;61379;59.732;30.468;2024-02-21T13:11:14;10.05;;;9.13;;
73168;SDS011;61379;59.732;30.468;2024-02-21T13:13:42;10.77;;;9.38;;
73168;SDS011;61379;59.732;30.468;2024-02-21T13:16:10;10.55;;;9.50;;
73168;SDS011;61379;59.732;30.468;2024-02-21T13:18:37;11.52;;;9.73;;
73168;SDS011;61379;59.732;30.468;2024-02-21T13:21:05;11.00;;;9.15;;
73168;SDS011;61379;59.732;30.468;2024-02-21T13:23:32;13.75;;;10.70;;
73168;SDS011;61379;59.732;30.468;2024-02-21T13:25:58;12.90;;;9.95;;
73168;SDS011;61379;59.732;30.468;2024-02-21T13:28:25;17.25;;;9.07;;
73168;SDS011;61379;59.732;30.468;2024-02-21T13:30:53;14.68;;;11.07;;
73168;SDS011;61379;59.732;30.468;2024-02-21T13:33:21;22.10;;;13.15;;
73168;SDS011;61379;59.732;30.468;2024-02-21T13:35:48;16.33;;;11.25;;
73168;SDS011;61379;59.732;30.468;2024-02-21T13:38:15;15.27;;;11.45;;
73168;SDS011;61379;59.732;30.468;2024-02-21T13:40:41;18.42;;;12.60;;
73168;SDS011;61379;59.732;30.468;2024-02-21T13:43:08;16.73;;;10.98;;
73168;SDS011;61379;59.732;30.468;2024-02-21T13:45:35;13.07;;;10.60;;
73168;SDS011;61379;59.732;30.468;2024-02-21T13:48:02;14.70;;;11.20;;
73168;SDS011;61379;59.732;30.468;2024-02-21T13:50:32;10.75;;;9.70;;
73168;SDS011;61379;59.732;30.468;2024-02-21T13:53:08;21.38;;;12.68;;
73168;SDS011;61379;59.732;30.468;2024-02-21T13:55:35;12.65;;;9.70;;
73168;SDS011;61379;59.732;30.468;2024-02-21T13:58:02;16.77;;;10.95;;
73168;SDS011;61379;59.732;30.468;2024-02-21T14:00:29;14.65;;;10.82;;
73168;SDS011;61379;59.732;30.468;2024-02-21T14:02:58;14.32;;;10.38;;
73168;SDS011;61379;59.732;30.468;2024-02-21T14:05:26;16.63;;;10.95;;
73168;SDS011;61379;59.732;30.468;2024-02-21T14:07:55;12.68;;;10.45;;
73168;SDS011;61379;59.732;30.468;2024-02-21T14:10:22;13.90;;;9.95;;
73168;SDS011;61379;59.732;30.468;2024-02-21T14:12:49;24.10;;;14.75;;
73168;SDS011;61379;59.732;30.468;2024-02-21T14:15:16;11.35;;;9.35;;
73168;SDS011;61379;59.732;30.468;2024-02-21T14:17:43;16.45;;;11.48;;
73168;SDS011;61379;59.732;30.468;2024-02-21T14:20:10;19.38;;;11.82;;
73168;SDS011;61379;59.732;30.468;2024-02-21T14:22:39;18.23;;;11.10;;
73168;SDS011;61379;59.732;30.468;2024-02-21T14:25:08;19.00;;;13.00;;
73168;SDS011;61379;59.732;30.468;2024-02-21T14:27:34;10.93;;;8.43;;
73168;SDS011;61379;59.732;30.468;2024-02-21T14:30:02;18.77;;;11.35;;
73168;SDS011;61379;59.732;30.468;2024-02-21T14:32:31;17.25;;;10.98;;